sensor_id;sensor_type;location;lat;lon;timestamp;P1;durP1;ratioP1;P2;durP2;ratioP2
45548;SDS011;31270;48.328;10.096;2023-03-12T00:01:22;14.83;;;9.80;;
45548;SDS011;31270;48.328;10.096;2023-03-12T00:03:49;15.77;;;10.60;;
45548;SDS011;31270;48.328;10.096;2023-03-12T00:06:16;15.90;;;9.53;;
45548;SDS011;31270;48.328;10.096;2023-03-12T00:08:43;16.83;;;10.80;;
45548;SDS011;31270;48.328;10.096;2023-03-12T00:11:09;14.00;;;9.93;;
45548;SDS011;31270;48.328;10.096;2023-03-12T00:13:36;16.63;;;11.30;;
45548;SDS011;31270;48.328;10.096;2023-03-12T00:16:06;15.57;;;9.33;;
45548;SDS011;31270;48.328;10.096;2023-03-12T00:18:33;13.60;;;8.73;;
45548;SDS011;31270;48.328;10.096;2023-03-12T00:20:59;14.77;;;10.03;;
45548;SDS011;31270;48.328;10.096;2023-03-12T00:23:25;16.43;;;10.17;;
45548;SDS011;31270;48.328;10.096;2023-03-12T00:25:51;16.00;;;9.63;;
45548;SDS011;31270;48.328;10.096;2023-03-12T00:28:16;13.77;;;9.53;;
45548;SDS011;31270;48.328;10.096;2023-03-12T00:30:42;12.57;;;9.33;;
45548;SDS011;31270;48.328;10.096;2023-03-12T00:33:08;14.60;;;10.40;;
45548;SDS011;31270;48.328;10.096;2023-03-12T00:35:36;13.70;;;9.33;;
45548;SDS011;31270;48.328;10.096;2023-03-12T00:38:02;13.27;;;9.63;;
45548;SDS011;31270;48.328;10.096;2023-03-12T00:40:27;16.03;;;10.00;;
45548;SDS011;31270;48.328;10.096;2023-03-12T00:42:53;16.07;;;10.57;;
45548;SDS011;31270;48.328;10.096;2023-03-12T00:45:19;19.33;;;10.47;;
45548;SDS011;31270;48.328;10.096;2023-03-12T00:47:44;16.00;;;10.67;;
45548;SDS011;31270;48.328;10.096;2023-03-12T00:50:10;19.97;;;10.47;;
45548;SDS011;31270;48.328;10.096;2023-03-12T00:52:35;17.93;;;11.20;;
45548;SDS011;31270;48.328;10.096;2023-03-12T00:55:01;17.17;;;11.20;;
45548;SDS011;31270;48.328;10.096;2023-03-12T00:57:27;16.97;;;11.20;;
45548;SDS011;31270;48.328;10.096;2023-03-12T00:59:52;20.83;;;11.80;;
45548;SDS011;31270;48.328;10.096;2023-03-12T01:02:18;18.30;;;11.53;;
45548;SDS011;31270;48.328;10.096;2023-03-12T01:04:43;16.23;;;10.93;;
45548;SDS011;31270;48.328;10.096;2023-03-12T01:07:09;16.30;;;10.80;;
45548;SDS011;31270;48.328;10.096;2023-03-12T01:09:35;17.53;;;11.23;;
45548;SDS011;31270;48.328;10.096;2023-03-12T01:12:01;14.47;;;10.80;;
45548;SDS011;31270;48.328;10.096;2023-03-12T01:14:26;20.07;;;11.00;;
45548;SDS011;31270;48.328;10.096;2023-03-12T01:16:52;20.40;;;10.27;;
45548;SDS011;31270;48.328;10.096;2023-03-12T01:19:18;17.63;;;10.27;;
45548;SDS011;31270;48.328;10.096;2023-03-12T01:21:43;16.37;;;9.73;;
45548;SDS011;31270;48.328;10.096;2023-03-12T01:24:09;14.37;;;9.43;;
45548;SDS011;31270;48.328;10.096;2023-03-12T01:26:34;16.63;;;10.43;;
45548;SDS011;31270;48.328;10.096;2023-03-12T01:29:00;22.60;;;10.77;;
45548;SDS011;31270;48.328;10.096;2023-03-12T01:31:25;14.43;;;9.93;;
45548;SDS011;31270;48.328;10.096;2023-03-12T01:33:51;14.63;;;11.07;;
45548;SDS011;31270;48.328;10.096;2023-03-12T01:36:18;18.53;;;10.87;;
45548;SDS011;31270;48.328;10.096;2023-03-12T01:38:49;15.53;;;10.77;;
45548;SDS011;31270;48.328;10.096;2023-03-12T01:41:16;16.37;;;10.30;;
45548;SDS011;31270;48.328;10.096;2023-03-12T01:43:42;15.93;;;9.87;;
45548;SDS011;31270;48.328;10.096;2023-03-12T01:49:03;17.27;;;10.53;;
45548;SDS011;31270;48.328;10.096;2023-03-12T01:51:36;18.40;;;10.53;;
45548;SDS011;31270;48.328;10.096;2023-03-12T01:54:16;15.30;;;10.63;;
45548;SDS011;31270;48.328;10.096;2023-03-12T01:56:46;17.17;;;10.03;;
45548;SDS011;31270;48.328;10.096;2023-03-12T01:59:14;19.30;;;10.73;;
45548;SDS011;31270;48.328;10.096;2023-03-12T02:01:46;15.00;;;10.20;;
45548;SDS011;31270;48.328;10.096;2023-03-12T02:04:12;16.13;;;10.37;;
45548;SDS011;31270;48.328;10.096;2023-03-12T02:06:49;18.50;;;10.30;;
45548;SDS011;31270;48.328;10.096;2023-03-12T02:09:21;13.40;;;10.00;;
45548;SDS011;31270;48.328;10.096;2023-03-12T02:11:48;16.63;;;10.33;;
45548;SDS011;31270;48.328;10.096;2023-03-12T02:14:14;17.60;;;11.37;;
45548;SDS011;31270;48.328;10.096;2023-03-12T02:16:40;15.47;;;10.47;;
45548;SDS011;31270;48.328;10.096;2023-03-12T02:19:08;14.70;;;10.23;;
45548;SDS011;31270;48.328;10.096;2023-03-12T02:21:44;15.30;;;10.10;;
45548;SDS011;31270;48.328;10.096;2023-03-12T02:27:04;16.67;;;10.10;;
45548;SDS011;31270;48.328;10.096;2023-03-12T02:29:32;17.70;;;9.80;;
45548;SDS011;31270;48.328;10.096;2023-03-12T02:31:59;16.40;;;10.07;;
45548;SDS011;31270;48.328;10.096;2023-03-12T02:34:28;16.60;;;9.83;;
45548;SDS011;31270;48.328;10.096;2023-03-12T02:36:54;13.97;;;9.93;;
45548;SDS011;31270;48.328;10.096;2023-03-12T02:39:19;15.57;;;9.73;;
45548;SDS011;31270;48.328;10.096;2023-03-12T02:41:53;15.80;;;10.33;;
45548;SDS011;31270;48.328;10.096;2023-03-12T02:44:23;14.57;;;9.33;;
45548;SDS011;31270;48.328;10.096;2023-03-12T02:46:55;19.10;;;10.20;;
45548;SDS011;31270;48.328;10.096;2023-03-12T02:49:23;15.53;;;10.17;;
45548;SDS011;31270;48.328;10.096;2023-03-12T02:51:51;15.07;;;9.60;;
45548;SDS011;31270;48.328;10.096;2023-03-12T02:54:18;19.60;;;10.17;;
45548;SDS011;31270;48.328;10.096;2023-03-12T02:56:45;13.10;;;9.77;;
45548;SDS011;31270;48.328;10.096;2023-03-12T02:59:11;14.50;;;9.93;;
45548;SDS011;31270;48.328;10.096;2023-03-12T03:01:38;16.93;;;10.27;;
45548;SDS011;31270;48.328;10.096;2023-03-12T03:04:04;21.00;;;10.27;;
45548;SDS011;31270;48.328;10.096;2023-03-12T03:06:31;19.03;;;9.70;;
45548;SDS011;31270;48.328;10.096;2023-03-12T03:08:58;15.57;;;9.57;;
45548;SDS011;31270;48.328;10.096;2023-03-12T03:11:24;13.37;;;9.60;;
45548;SDS011;31270;48.328;10.096;2023-03-12T03:13:50;14.80;;;10.23;;
45548;SDS011;31270;48.328;10.096;2023-03-12T03:16:17;17.73;;;10.10;;
45548;SDS011;31270;48.328;10.096;2023-03-12T03:18:42;16.00;;;10.67;;
45548;SDS011;31270;48.328;10.096;2023-03-12T03:21:08;15.97;;;9.77;;
45548;SDS011;31270;48.328;10.096;2023-03-12T03:23:40;17.73;;;10.23;;
45548;SDS011;31270;48.328;10.096;2023-03-12T03:26:12;16.70;;;9.17;;
45548;SDS011;31270;48.328;10.096;2023-03-12T03:28:39;13.73;;;8.93;;
45548;SDS011;31270;48.328;10.096;2023-03-12T03:31:05;13.17;;;10.23;;
45548;SDS011;31270;48.328;10.096;2023-03-12T03:33:35;14.03;;;10.40;;
45548;SDS011;31270;48.328;10.096;2023-03-12T03:36:02;17.53;;;10.50;;
45548;SDS011;31270;48.328;10.096;2023-03-12T03:38:28;13.07;;;10.03;;
45548;SDS011;31270;48.328;10.096;2023-03-12T03:40:55;14.10;;;9.83;;
45548;SDS011;31270;48.328;10.096;2023-03-12T03:43:21;14.43;;;10.63;;
45548;SDS011;31270;48.328;10.096;2023-03-12T03:45:47;15.20;;;9.70;;
45548;SDS011;31270;48.328;10.096;2023-03-12T03:48:13;18.40;;;10.37;;
45548;SDS011;31270;48.328;10.096;2023-03-12T03:50:39;14.03;;;9.10;;
45548;SDS011;31270;48.328;10.096;2023-03-12T03:53:06;15.83;;;9.37;;
45548;SDS011;31270;48.328;10.096;2023-03-12T03:55:36;19.47;;;10.20;;
45548;SDS011;31270;48.328;10.096;2023-03-12T03:58:03;13.60;;;9.00;;
45548;SDS011;31270;48.328;10.096;2023-03-12T04:00:29;11.87;;;8.63;;
45548;SDS011;31270;48.328;10.096;2023-03-12T04:02:55;13.13;;;8.20;;
45548;SDS011;31270;48.328;10.096;2023-03-12T04:05:20;14.27;;;8.60;;
45548;SDS011;31270;48.328;10.096;2023-03-12T04:07:46;14.63;;;8.27;;
45548;SDS011;31270;48.328;10.096;2023-03-12T04:10:12;13.93;;;9.20;;
45548;SDS011;31270;48.328;10.096;2023-03-12T04:12:38;15.13;;;8.57;;
45548;SDS011;31270;48.328;10.096;2023-03-12T04:15:04;15.83;;;9.07;;
45548;SDS011;31270;48.328;10.096;2023-03-12T04:17:31;10.30;;;7.83;;
45548;SDS011;31270;48.328;10.096;2023-03-12T04:19:57;12.37;;;8.97;;
45548;SDS011;31270;48.328;10.096;2023-03-12T04:22:22;15.23;;;9.00;;
45548;SDS011;31270;48.328;10.096;2023-03-12T04:24:48;17.03;;;9.30;;
45548;SDS011;31270;48.328;10.096;2023-03-12T04:27:14;11.90;;;7.77;;
45548;SDS011;31270;48.328;10.096;2023-03-12T04:29:40;12.80;;;8.50;;
45548;SDS011;31270;48.328;10.096;2023-03-12T04:32:06;13.07;;;8.53;;
45548;SDS011;31270;48.328;10.096;2023-03-12T04:34:32;12.23;;;8.17;;
45548;SDS011;31270;48.328;10.096;2023-03-12T04:36:59;15.43;;;9.20;;
45548;SDS011;31270;48.328;10.096;2023-03-12T04:39:26;18.80;;;9.13;;
45548;SDS011;31270;48.328;10.096;2023-03-12T04:41:52;12.57;;;8.40;;
45548;SDS011;31270;48.328;10.096;2023-03-12T04:44:18;12.90;;;9.23;;
45548;SDS011;31270;48.328;10.096;2023-03-12T04:46:43;9.80;;;8.30;;
45548;SDS011;31270;48.328;10.096;2023-03-12T04:49:09;15.77;;;9.03;;
45548;SDS011;31270;48.328;10.096;2023-03-12T04:51:35;15.40;;;9.33;;
45548;SDS011;31270;48.328;10.096;2023-03-12T04:54:00;12.60;;;8.83;;
45548;SDS011;31270;48.328;10.096;2023-03-12T04:56:26;11.83;;;8.60;;
45548;SDS011;31270;48.328;10.096;2023-03-12T04:58:52;14.13;;;9.00;;
45548;SDS011;31270;48.328;10.096;2023-03-12T05:01:28;17.30;;;9.10;;
45548;SDS011;31270;48.328;10.096;2023-03-12T05:03:55;14.30;;;9.17;;
45548;SDS011;31270;48.328;10.096;2023-03-12T05:06:22;11.77;;;8.73;;
45548;SDS011;31270;48.328;10.096;2023-03-12T05:08:49;13.83;;;8.70;;
45548;SDS011;31270;48.328;10.096;2023-03-12T05:11:15;17.10;;;10.40;;
45548;SDS011;31270;48.328;10.096;2023-03-12T05:13:41;22.03;;;12.10;;
45548;SDS011;31270;48.328;10.096;2023-03-12T05:16:08;26.17;;;14.50;;
45548;SDS011;31270;48.328;10.096;2023-03-12T05:18:34;21.80;;;12.03;;
45548;SDS011;31270;48.328;10.096;2023-03-12T05:21:01;23.73;;;13.07;;
45548;SDS011;31270;48.328;10.096;2023-03-12T05:23:29;18.87;;;11.67;;
45548;SDS011;31270;48.328;10.096;2023-03-12T05:25:55;17.13;;;11.50;;
45548;SDS011;31270;48.328;10.096;2023-03-12T05:28:21;14.43;;;9.97;;
45548;SDS011;31270;48.328;10.096;2023-03-12T05:30:52;17.27;;;10.03;;
45548;SDS011;31270;48.328;10.096;2023-03-12T05:33:24;16.13;;;9.77;;
45548;SDS011;31270;48.328;10.096;2023-03-12T05:35:51;17.70;;;10.47;;
45548;SDS011;31270;48.328;10.096;2023-03-12T05:38:17;17.07;;;10.07;;
45548;SDS011;31270;48.328;10.096;2023-03-12T05:40:49;16.60;;;10.17;;
45548;SDS011;31270;48.328;10.096;2023-03-12T05:43:17;16.13;;;10.30;;
45548;SDS011;31270;48.328;10.096;2023-03-12T05:45:43;19.30;;;10.83;;
45548;SDS011;31270;48.328;10.096;2023-03-12T05:48:08;17.07;;;10.17;;
45548;SDS011;31270;48.328;10.096;2023-03-12T05:50:34;16.13;;;9.97;;
45548;SDS011;31270;48.328;10.096;2023-03-12T05:52:59;16.30;;;11.53;;
45548;SDS011;31270;48.328;10.096;2023-03-12T05:55:25;16.00;;;10.30;;
45548;SDS011;31270;48.328;10.096;2023-03-12T05:57:50;15.43;;;10.57;;
45548;SDS011;31270;48.328;10.096;2023-03-12T06:00:16;18.07;;;11.00;;
45548;SDS011;31270;48.328;10.096;2023-03-12T06:02:42;20.87;;;11.67;;
45548;SDS011;31270;48.328;10.096;2023-03-12T06:05:08;18.03;;;11.00;;
45548;SDS011;31270;48.328;10.096;2023-03-12T06:07:35;18.43;;;11.57;;
45548;SDS011;31270;48.328;10.096;2023-03-12T06:10:00;20.77;;;11.73;;
45548;SDS011;31270;48.328;10.096;2023-03-12T06:12:26;30.50;;;15.43;;
45548;SDS011;31270;48.328;10.096;2023-03-12T06:14:51;38.33;;;17.47;;
45548;SDS011;31270;48.328;10.096;2023-03-12T06:17:18;34.30;;;16.17;;
45548;SDS011;31270;48.328;10.096;2023-03-12T06:19:43;24.27;;;14.40;;
45548;SDS011;31270;48.328;10.096;2023-03-12T06:22:09;20.63;;;11.93;;
45548;SDS011;31270;48.328;10.096;2023-03-12T06:24:34;20.67;;;12.67;;
45548;SDS011;31270;48.328;10.096;2023-03-12T06:27:00;23.07;;;12.00;;
45548;SDS011;31270;48.328;10.096;2023-03-12T06:29:26;20.10;;;11.63;;
45548;SDS011;31270;48.328;10.096;2023-03-12T06:31:51;23.23;;;12.83;;
45548;SDS011;31270;48.328;10.096;2023-03-12T06:34:17;20.03;;;11.90;;
45548;SDS011;31270;48.328;10.096;2023-03-12T06:36:43;23.27;;;13.17;;
45548;SDS011;31270;48.328;10.096;2023-03-12T06:39:08;18.33;;;10.93;;
45548;SDS011;31270;48.328;10.096;2023-03-12T06:41:34;18.63;;;10.93;;
45548;SDS011;31270;48.328;10.096;2023-03-12T06:44:00;17.23;;;11.00;;
45548;SDS011;31270;48.328;10.096;2023-03-12T06:46:29;19.33;;;12.43;;
45548;SDS011;31270;48.328;10.096;2023-03-12T06:48:56;17.87;;;11.27;;
45548;SDS011;31270;48.328;10.096;2023-03-12T06:51:21;20.73;;;11.70;;
45548;SDS011;31270;48.328;10.096;2023-03-12T06:53:47;17.87;;;11.67;;
45548;SDS011;31270;48.328;10.096;2023-03-12T06:56:12;20.97;;;12.00;;
45548;SDS011;31270;48.328;10.096;2023-03-12T06:58:38;20.07;;;11.80;;
45548;SDS011;31270;48.328;10.096;2023-03-12T07:01:04;19.37;;;12.27;;
45548;SDS011;31270;48.328;10.096;2023-03-12T07:03:30;30.57;;;13.03;;
45548;SDS011;31270;48.328;10.096;2023-03-12T07:05:56;25.87;;;13.53;;
45548;SDS011;31270;48.328;10.096;2023-03-12T07:08:22;22.27;;;13.97;;
45548;SDS011;31270;48.328;10.096;2023-03-12T07:10:49;21.27;;;13.00;;
45548;SDS011;31270;48.328;10.096;2023-03-12T07:13:14;20.93;;;13.53;;
45548;SDS011;31270;48.328;10.096;2023-03-12T07:15:40;22.67;;;13.97;;
45548;SDS011;31270;48.328;10.096;2023-03-12T07:18:06;23.20;;;13.53;;
45548;SDS011;31270;48.328;10.096;2023-03-12T07:20:37;25.50;;;15.00;;
45548;SDS011;31270;48.328;10.096;2023-03-12T07:23:04;22.60;;;12.60;;
45548;SDS011;31270;48.328;10.096;2023-03-12T07:25:33;22.93;;;13.23;;
45548;SDS011;31270;48.328;10.096;2023-03-12T07:28:00;24.13;;;13.97;;
45548;SDS011;31270;48.328;10.096;2023-03-12T07:30:25;23.20;;;14.03;;
45548;SDS011;31270;48.328;10.096;2023-03-12T07:32:51;24.37;;;13.97;;
45548;SDS011;31270;48.328;10.096;2023-03-12T07:35:17;27.67;;;14.47;;
45548;SDS011;31270;48.328;10.096;2023-03-12T07:37:42;25.60;;;14.60;;
45548;SDS011;31270;48.328;10.096;2023-03-12T07:40:08;26.83;;;13.77;;
45548;SDS011;31270;48.328;10.096;2023-03-12T07:42:34;28.20;;;15.03;;
45548;SDS011;31270;48.328;10.096;2023-03-12T07:45:00;22.63;;;13.80;;
45548;SDS011;31270;48.328;10.096;2023-03-12T07:47:26;25.10;;;14.97;;
45548;SDS011;31270;48.328;10.096;2023-03-12T07:49:51;25.60;;;14.27;;
45548;SDS011;31270;48.328;10.096;2023-03-12T07:52:17;28.37;;;13.90;;
45548;SDS011;31270;48.328;10.096;2023-03-12T07:54:44;26.73;;;14.40;;
45548;SDS011;31270;48.328;10.096;2023-03-12T07:57:10;25.20;;;14.83;;
45548;SDS011;31270;48.328;10.096;2023-03-12T07:59:35;26.03;;;14.77;;
45548;SDS011;31270;48.328;10.096;2023-03-12T08:02:01;25.33;;;14.00;;
45548;SDS011;31270;48.328;10.096;2023-03-12T08:04:27;26.47;;;14.97;;
45548;SDS011;31270;48.328;10.096;2023-03-12T08:06:55;24.37;;;14.53;;
45548;SDS011;31270;48.328;10.096;2023-03-12T08:09:20;26.47;;;14.90;;
45548;SDS011;31270;48.328;10.096;2023-03-12T08:11:46;28.77;;;15.30;;
45548;SDS011;31270;48.328;10.096;2023-03-12T08:14:12;26.40;;;14.23;;
45548;SDS011;31270;48.328;10.096;2023-03-12T08:16:37;26.90;;;15.07;;
45548;SDS011;31270;48.328;10.096;2023-03-12T08:19:03;26.40;;;15.00;;
45548;SDS011;31270;48.328;10.096;2023-03-12T08:21:29;28.40;;;15.70;;
45548;SDS011;31270;48.328;10.096;2023-03-12T08:23:54;24.87;;;14.10;;
45548;SDS011;31270;48.328;10.096;2023-03-12T08:26:20;27.17;;;15.13;;
45548;SDS011;31270;48.328;10.096;2023-03-12T08:28:46;32.33;;;16.50;;
45548;SDS011;31270;48.328;10.096;2023-03-12T08:31:12;29.50;;;16.80;;
45548;SDS011;31270;48.328;10.096;2023-03-12T08:33:37;29.90;;;16.70;;
45548;SDS011;31270;48.328;10.096;2023-03-12T08:36:07;30.73;;;15.27;;
45548;SDS011;31270;48.328;10.096;2023-03-12T08:38:33;28.00;;;15.63;;
45548;SDS011;31270;48.328;10.096;2023-03-12T08:40:59;31.77;;;15.33;;
45548;SDS011;31270;48.328;10.096;2023-03-12T08:43:26;27.37;;;15.30;;
45548;SDS011;31270;48.328;10.096;2023-03-12T08:45:58;28.87;;;15.93;;
45548;SDS011;31270;48.328;10.096;2023-03-12T08:48:28;27.63;;;15.60;;
45548;SDS011;31270;48.328;10.096;2023-03-12T08:50:56;27.80;;;15.73;;
45548;SDS011;31270;48.328;10.096;2023-03-12T08:53:23;27.20;;;14.47;;
45548;SDS011;31270;48.328;10.096;2023-03-12T08:55:53;24.33;;;14.70;;
45548;SDS011;31270;48.328;10.096;2023-03-12T08:58:19;22.57;;;13.37;;
45548;SDS011;31270;48.328;10.096;2023-03-12T09:00:46;23.00;;;13.77;;
45548;SDS011;31270;48.328;10.096;2023-03-12T09:03:11;22.67;;;12.37;;
45548;SDS011;31270;48.328;10.096;2023-03-12T09:05:39;20.20;;;12.47;;
45548;SDS011;31270;48.328;10.096;2023-03-12T09:08:05;20.40;;;11.47;;
45548;SDS011;31270;48.328;10.096;2023-03-12T09:10:32;22.73;;;12.53;;
45548;SDS011;31270;48.328;10.096;2023-03-12T09:12:57;18.03;;;11.33;;
45548;SDS011;31270;48.328;10.096;2023-03-12T09:15:23;23.33;;;12.43;;
45548;SDS011;31270;48.328;10.096;2023-03-12T09:17:49;17.13;;;12.37;;
45548;SDS011;31270;48.328;10.096;2023-03-12T09:20:15;22.47;;;12.50;;
45548;SDS011;31270;48.328;10.096;2023-03-12T09:22:41;25.00;;;14.10;;
45548;SDS011;31270;48.328;10.096;2023-03-12T09:25:08;26.33;;;13.47;;
45548;SDS011;31270;48.328;10.096;2023-03-12T09:27:36;27.47;;;15.33;;
45548;SDS011;31270;48.328;10.096;2023-03-12T09:30:03;22.57;;;13.87;;
45548;SDS011;31270;48.328;10.096;2023-03-12T09:32:31;22.70;;;13.53;;
45548;SDS011;31270;48.328;10.096;2023-03-12T09:34:57;24.27;;;14.17;;
45548;SDS011;31270;48.328;10.096;2023-03-12T09:37:23;20.60;;;13.23;;
45548;SDS011;31270;48.328;10.096;2023-03-12T09:39:49;21.43;;;12.67;;
45548;SDS011;31270;48.328;10.096;2023-03-12T09:42:20;16.17;;;11.57;;
45548;SDS011;31270;48.328;10.096;2023-03-12T09:44:54;20.03;;;12.13;;
45548;SDS011;31270;48.328;10.096;2023-03-12T09:49:54;20.43;;;12.37;;
45548;SDS011;31270;48.328;10.096;2023-03-12T09:52:27;23.20;;;12.13;;
45548;SDS011;31270;48.328;10.096;2023-03-12T09:55:06;19.07;;;12.67;;
45548;SDS011;31270;48.328;10.096;2023-03-12T09:57:35;22.80;;;11.80;;
45548;SDS011;31270;48.328;10.096;2023-03-12T10:00:01;17.53;;;11.50;;
45548;SDS011;31270;48.328;10.096;2023-03-12T10:05:23;17.40;;;10.57;;
45548;SDS011;31270;48.328;10.096;2023-03-12T10:08:04;18.87;;;11.27;;
45548;SDS011;31270;48.328;10.096;2023-03-12T10:10:57;18.67;;;11.43;;
45548;SDS011;31270;48.328;10.096;2023-03-12T10:21:58;18.50;;;10.93;;
45548;SDS011;31270;48.328;10.096;2023-03-12T10:24:35;19.23;;;11.67;;
45548;SDS011;31270;48.328;10.096;2023-03-12T10:27:19;20.60;;;11.77;;
45548;SDS011;31270;48.328;10.096;2023-03-12T10:29:48;19.33;;;12.20;;
45548;SDS011;31270;48.328;10.096;2023-03-12T10:32:27;19.17;;;12.77;;
45548;SDS011;31270;48.328;10.096;2023-03-12T10:34:56;19.70;;;13.17;;
45548;SDS011;31270;48.328;10.096;2023-03-12T10:37:30;16.67;;;11.83;;
45548;SDS011;31270;48.328;10.096;2023-03-12T10:40:01;18.10;;;11.97;;
45548;SDS011;31270;48.328;10.096;2023-03-12T10:42:29;18.23;;;11.80;;
45548;SDS011;31270;48.328;10.096;2023-03-12T10:44:58;17.83;;;10.30;;
45548;SDS011;31270;48.328;10.096;2023-03-12T10:47:49;15.93;;;9.93;;
45548;SDS011;31270;48.328;10.096;2023-03-12T10:50:24;17.10;;;10.43;;
45548;SDS011;31270;48.328;10.096;2023-03-12T10:52:53;15.03;;;9.47;;
45548;SDS011;31270;48.328;10.096;2023-03-12T10:55:35;13.37;;;8.93;;
45548;SDS011;31270;48.328;10.096;2023-03-12T10:58:01;15.37;;;8.97;;
45548;SDS011;31270;48.328;10.096;2023-03-12T11:00:28;13.00;;;8.20;;
45548;SDS011;31270;48.328;10.096;2023-03-12T11:03:16;13.87;;;7.93;;
45548;SDS011;31270;48.328;10.096;2023-03-12T11:05:45;13.47;;;8.93;;
45548;SDS011;31270;48.328;10.096;2023-03-12T11:08:18;15.07;;;9.07;;
45548;SDS011;31270;48.328;10.096;2023-03-12T11:10:45;13.57;;;7.90;;
45548;SDS011;31270;48.328;10.096;2023-03-12T11:13:31;13.93;;;9.37;;
45548;SDS011;31270;48.328;10.096;2023-03-12T11:16:22;16.20;;;9.37;;
45548;SDS011;31270;48.328;10.096;2023-03-12T11:21:21;14.97;;;9.53;;
45548;SDS011;31270;48.328;10.096;2023-03-12T11:26:23;14.27;;;9.10;;
45548;SDS011;31270;48.328;10.096;2023-03-12T11:32:03;15.40;;;9.43;;
45548;SDS011;31270;48.328;10.096;2023-03-12T11:34:37;13.47;;;8.93;;
45548;SDS011;31270;48.328;10.096;2023-03-12T11:37:05;14.87;;;9.23;;
45548;SDS011;31270;48.328;10.096;2023-03-12T11:45:27;14.30;;;9.13;;
45548;SDS011;31270;48.328;10.096;2023-03-12T11:50:38;17.10;;;9.73;;
45548;SDS011;31270;48.328;10.096;2023-03-12T12:07:52;11.83;;;6.60;;
45548;SDS011;31270;48.328;10.096;2023-03-12T12:10:40;10.20;;;6.57;;
45548;SDS011;31270;48.328;10.096;2023-03-12T12:13:25;7.70;;;5.30;;
45548;SDS011;31270;48.328;10.096;2023-03-12T12:16:28;8.40;;;5.27;;
45548;SDS011;31270;48.328;10.096;2023-03-12T12:22:28;7.00;;;3.50;;
45548;SDS011;31270;48.328;10.096;2023-03-12T12:25:19;4.80;;;3.37;;
45548;SDS011;31270;48.328;10.096;2023-03-12T12:27:58;6.83;;;4.30;;
45548;SDS011;31270;48.328;10.096;2023-03-12T12:30:47;6.83;;;3.80;;
45548;SDS011;31270;48.328;10.096;2023-03-12T12:36:07;6.97;;;3.60;;
45548;SDS011;31270;48.328;10.096;2023-03-12T12:38:35;8.17;;;3.07;;
45548;SDS011;31270;48.328;10.096;2023-03-12T12:41:17;4.27;;;3.07;;
45548;SDS011;31270;48.328;10.096;2023-03-12T12:43:50;4.20;;;2.70;;
45548;SDS011;31270;48.328;10.096;2023-03-12T12:46:41;4.90;;;2.53;;
45548;SDS011;31270;48.328;10.096;2023-03-12T12:49:17;5.83;;;3.80;;
45548;SDS011;31270;48.328;10.096;2023-03-12T12:51:52;7.10;;;3.20;;
45548;SDS011;31270;48.328;10.096;2023-03-12T12:57:21;6.70;;;3.50;;
45548;SDS011;31270;48.328;10.096;2023-03-12T13:00:07;7.63;;;4.10;;
45548;SDS011;31270;48.328;10.096;2023-03-12T13:02:45;8.93;;;5.13;;
45548;SDS011;31270;48.328;10.096;2023-03-12T13:05:39;10.57;;;5.83;;
45548;SDS011;31270;48.328;10.096;2023-03-12T13:08:30;8.27;;;6.13;;
45548;SDS011;31270;48.328;10.096;2023-03-12T13:11:43;9.47;;;6.17;;
45548;SDS011;31270;48.328;10.096;2023-03-12T13:21:56;9.93;;;4.63;;
45548;SDS011;31270;48.328;10.096;2023-03-12T13:24:28;7.13;;;4.27;;
45548;SDS011;31270;48.328;10.096;2023-03-12T13:29:37;9.00;;;3.90;;
45548;SDS011;31270;48.328;10.096;2023-03-12T13:32:07;6.47;;;3.80;;
45548;SDS011;31270;48.328;10.096;2023-03-12T13:34:55;6.33;;;4.40;;
45548;SDS011;31270;48.328;10.096;2023-03-12T13:43:00;6.20;;;4.10;;
45548;SDS011;31270;48.328;10.096;2023-03-12T13:45:32;7.93;;;4.93;;
45548;SDS011;31270;48.328;10.096;2023-03-12T13:48:03;5.77;;;4.20;;
45548;SDS011;31270;48.328;10.096;2023-03-12T13:50:30;5.13;;;4.00;;
45548;SDS011;31270;48.328;10.096;2023-03-12T13:55:34;7.90;;;4.37;;
45548;SDS011;31270;48.328;10.096;2023-03-12T14:00:38;6.97;;;3.93;;
45548;SDS011;31270;48.328;10.096;2023-03-12T14:03:15;6.53;;;3.57;;
45548;SDS011;31270;48.328;10.096;2023-03-12T14:16:56;4.67;;;3.30;;
45548;SDS011;31270;48.328;10.096;2023-03-12T14:19:26;4.30;;;2.77;;
45548;SDS011;31270;48.328;10.096;2023-03-12T14:21:58;6.97;;;3.30;;
45548;SDS011;31270;48.328;10.096;2023-03-12T14:24:27;4.67;;;3.17;;
45548;SDS011;31270;48.328;10.096;2023-03-12T14:27:20;4.87;;;2.60;;
45548;SDS011;31270;48.328;10.096;2023-03-12T14:29:52;6.20;;;2.73;;
45548;SDS011;31270;48.328;10.096;2023-03-12T14:32:28;2.57;;;2.33;;
45548;SDS011;31270;48.328;10.096;2023-03-12T14:34:57;4.87;;;3.07;;
45548;SDS011;31270;48.328;10.096;2023-03-12T14:37:43;4.57;;;3.10;;
45548;SDS011;31270;48.328;10.096;2023-03-12T14:46:05;3.90;;;2.33;;
45548;SDS011;31270;48.328;10.096;2023-03-12T14:48:39;4.50;;;2.40;;
45548;SDS011;31270;48.328;10.096;2023-03-12T14:51:05;2.60;;;2.40;;
45548;SDS011;31270;48.328;10.096;2023-03-12T14:53:35;3.53;;;2.50;;
45548;SDS011;31270;48.328;10.096;2023-03-12T14:56:12;3.00;;;2.67;;
45548;SDS011;31270;48.328;10.096;2023-03-12T14:58:48;3.70;;;2.57;;
45548;SDS011;31270;48.328;10.096;2023-03-12T15:01:19;4.10;;;2.60;;
45548;SDS011;31270;48.328;10.096;2023-03-12T15:03:48;3.10;;;2.40;;
45548;SDS011;31270;48.328;10.096;2023-03-12T15:06:31;5.07;;;2.53;;
45548;SDS011;31270;48.328;10.096;2023-03-12T15:09:00;2.93;;;2.37;;
45548;SDS011;31270;48.328;10.096;2023-03-12T15:11:28;3.07;;;2.33;;
45548;SDS011;31270;48.328;10.096;2023-03-12T15:14:00;2.83;;;2.40;;
45548;SDS011;31270;48.328;10.096;2023-03-12T15:16:29;4.50;;;2.30;;
45548;SDS011;31270;48.328;10.096;2023-03-12T15:18:55;4.03;;;2.70;;
45548;SDS011;31270;48.328;10.096;2023-03-12T15:21:21;3.33;;;2.00;;
45548;SDS011;31270;48.328;10.096;2023-03-12T15:23:48;2.87;;;2.07;;
45548;SDS011;31270;48.328;10.096;2023-03-12T15:31:21;4.20;;;1.67;;
45548;SDS011;31270;48.328;10.096;2023-03-12T15:33:58;1.93;;;1.57;;
45548;SDS011;31270;48.328;10.096;2023-03-12T15:36:28;3.03;;;1.63;;
45548;SDS011;31270;48.328;10.096;2023-03-12T15:38:57;2.80;;;1.90;;
45548;SDS011;31270;48.328;10.096;2023-03-12T15:46:45;4.17;;;2.00;;
45548;SDS011;31270;48.328;10.096;2023-03-12T15:49:25;5.00;;;1.87;;
45548;SDS011;31270;48.328;10.096;2023-03-12T15:52:02;3.13;;;2.10;;
45548;SDS011;31270;48.328;10.096;2023-03-12T15:57:46;3.90;;;2.43;;
45548;SDS011;31270;48.328;10.096;2023-03-12T16:00:14;2.63;;;1.97;;
45548;SDS011;31270;48.328;10.096;2023-03-12T16:02:46;4.57;;;1.90;;
45548;SDS011;31270;48.328;10.096;2023-03-12T16:05:19;4.23;;;2.20;;
45548;SDS011;31270;48.328;10.096;2023-03-12T16:07:55;2.50;;;1.77;;
45548;SDS011;31270;48.328;10.096;2023-03-12T16:10:21;3.17;;;1.80;;
45548;SDS011;31270;48.328;10.096;2023-03-12T16:12:58;2.27;;;1.57;;
45548;SDS011;31270;48.328;10.096;2023-03-12T16:15:28;5.23;;;2.00;;
45548;SDS011;31270;48.328;10.096;2023-03-12T16:17:56;2.23;;;1.70;;
45548;SDS011;31270;48.328;10.096;2023-03-12T16:20:22;3.30;;;1.80;;
45548;SDS011;31270;48.328;10.096;2023-03-12T16:22:48;4.60;;;1.73;;